.
WxDataArchive / Data Records for 2006-06-09
2006-06-08 June 2006 2006-06-10

Data Records for Friday, 09 June 2006

Time	Temp	Chill	HIndex	Humid	Dewpt	 Wind 	HiWind	WindDir	Rain 	Barom 
-----	----	-----	------	-----	-----	------	------	-------	-----	----- 
00:00	67.6	67.6	67.6	63	54.5	0	1	315	0.00	29.887 
00:05	67.6	67.6	67.6	63	54.5	0	1	315	0.00	29.887 
00:10	67.4	67.4	67.4	63	54.4	0	1	315	0.00	29.887 
00:15	67.3	67.3	67.3	63	54.3	0	1	315	0.00	29.886 
00:20	67.1	67.1	67.1	63	54.1	0	1	315	0.00	29.886 
00:25	66.9	66.9	66.9	64	54.3	0	1	315	0.00	29.886 
00:30	66.8	66.8	66.8	65	54.6	0	1	315	0.00	29.885 
00:35	66.6	66.6	66.6	65	54.5	0	1	315	0.00	29.885 
00:40	66.6	66.6	66.6	65	54.5	0	1	315	0.00	29.885 
00:45	66.4	66.4	66.4	65	54.3	0	1	315	0.00	29.885 
00:50	66.4	66.4	66.4	65	54.3	0	2	315	0.00	29.885 
00:55	66.3	66.3	66.3	66	54.6	0	1	315	0.00	29.885 
01:00	66.1	66.1	66.1	66	54.4	0	0	---	0.00	29.884 
01:05	66.0	66.0	66.0	66	54.3	0	1	315	0.00	29.884 
01:10	65.8	65.8	65.8	66	54.1	0	1	315	0.00	29.884 
01:15	66.0	66.0	66.0	66	54.3	0	1	315	0.00	29.883 
01:20	65.8	65.8	65.8	66	54.1	0	1	315	0.00	29.883 
01:25	65.5	65.5	65.5	67	54.2	0	1	315	0.00	29.883 
01:30	65.3	65.3	65.3	68	54.5	0	1	315	0.00	29.878 
01:35	65.3	65.3	65.3	68	54.5	0	1	315	0.00	29.878 
01:40	65.3	65.3	65.3	68	54.5	0	1	315	0.00	29.878 
01:45	65.2	65.2	65.2	69	54.8	0	1	315	0.00	29.877 
01:50	65.0	65.0	65.0	69	54.6	0	1	315	0.00	29.877 
01:55	64.7	64.7	64.7	70	54.7	0	0	---	0.00	29.877 
02:00	64.5	64.5	64.5	70	54.5	0	1	315	0.00	29.877 
02:05	64.2	64.2	64.2	71	54.6	0	0	---	0.00	29.877 
02:10	63.9	63.9	63.9	71	54.3	0	0	---	0.00	29.877 
02:15	63.5	63.5	63.5	72	54.3	0	0	---	0.00	29.879 
02:20	63.4	63.4	63.4	72	54.2	0	0	---	0.00	29.879 
02:25	63.2	63.2	63.2	73	54.4	0	0	---	0.00	29.879 
02:30	62.9	62.9	62.9	73	54.1	0	0	---	0.00	29.879 
02:35	62.6	62.6	62.6	74	54.2	0	0	---	0.00	29.879 
02:40	62.4	62.4	62.4	74	54.0	0	0	---	0.00	29.879 
02:45	62.3	62.3	62.3	75	54.3	0	0	---	0.00	29.880 
02:50	62.1	62.1	62.1	76	54.4	0	0	---	0.00	29.880 
02:55	61.8	61.8	61.8	76	54.1	0	0	---	0.00	29.880 
03:00	61.6	61.6	61.6	77	54.3	0	0	---	0.00	29.875 
03:05	61.5	61.5	61.5	77	54.2	0	0	---	0.00	29.875 
03:10	61.2	61.2	61.2	78	54.3	0	0	---	0.00	29.875 
03:15	61.2	61.2	61.2	78	54.3	0	0	---	0.00	29.883 
03:20	61.2	61.2	61.2	78	54.3	0	0	---	0.00	29.883 
03:25	61.0	61.0	61.0	78	54.1	0	0	---	0.00	29.883 
03:30	60.9	60.9	60.9	79	54.3	0	0	---	0.00	29.886 
03:35	60.9	60.9	60.9	79	54.3	0	0	---	0.00	29.886 
03:40	60.7	60.7	60.7	79	54.1	0	0	---	0.00	29.886 
03:45	60.7	60.7	60.7	79	54.1	0	0	---	0.00	29.889 
03:50	60.5	60.5	60.5	80	54.3	0	0	---	0.00	29.889 
03:55	60.7	60.7	60.7	80	54.5	0	0	---	0.00	29.889 
04:00	60.5	60.5	60.5	80	54.3	0	0	---	0.00	29.885 
04:05	60.5	60.5	60.5	80	54.3	0	0	---	0.00	29.885 
04:10	60.4	60.4	60.4	80	54.2	0	1	315	0.00	29.885 
04:15	60.4	60.4	60.4	80	54.2	0	0	---	0.00	29.896 
04:20	60.2	60.2	60.2	81	54.3	0	0	---	0.00	29.896 
04:25	60.1	60.1	60.1	81	54.2	0	0	---	0.00	29.896 
04:30	59.9	59.9	59.9	81	54.1	0	0	---	0.00	29.897 
04:35	59.8	59.8	59.8	81	54.0	0	0	---	0.00	29.897 
04:40	59.6	59.6	59.6	81	53.8	0	0	---	0.00	29.897 
04:45	59.5	59.5	59.5	81	53.7	0	0	---	0.00	29.900 
04:50	59.5	59.5	59.5	81	53.7	0	0	---	0.00	29.900 
04:55	59.5	59.5	59.5	81	53.7	0	0	---	0.00	29.900 
05:00	59.3	59.3	59.3	81	53.5	0	0	---	0.00	29.900 
05:05	59.2	59.2	59.2	81	53.4	0	0	---	0.00	29.900 
05:10	59.0	59.0	59.0	82	53.5	0	0	---	0.00	29.900 
05:15	58.7	58.7	58.7	82	53.2	0	0	---	0.00	29.901 
05:20	58.7	58.7	58.7	82	53.2	0	0	---	0.00	29.901 
05:25	58.4	58.4	58.4	83	53.3	0	0	---	0.00	29.901 
05:30	58.4	58.4	58.4	83	53.3	0	0	---	0.00	29.906 
05:35	58.3	58.3	58.3	83	53.2	0	0	---	0.00	29.906 
05:40	58.3	58.3	58.3	83	53.2	0	0	---	0.00	29.906 
05:45	58.1	58.1	58.1	83	53.0	0	0	---	0.00	29.914 
05:50	58.0	58.0	58.0	84	53.2	0	0	---	0.00	29.914 
05:55	58.0	58.0	58.0	84	53.2	0	0	---	0.00	29.914 
06:00	57.8	57.8	57.8	84	53.0	0	0	---	0.00	29.916 
06:05	57.8	57.8	57.8	84	53.0	0	0	---	0.00	29.916 
06:10	57.8	57.8	57.8	83	52.7	0	1	315	0.00	29.916 
06:15	57.8	57.8	57.8	83	52.7	0	0	---	0.00	29.916 
06:20	57.8	57.8	57.8	83	52.7	0	0	---	0.00	29.916 
06:25	57.6	57.6	57.6	83	52.5	0	0	---	0.00	29.916 
06:30	57.5	57.5	57.5	83	52.4	0	0	---	0.00	29.918 
06:35	57.5	57.5	57.5	83	52.4	0	0	---	0.00	29.918 
06:40	57.3	57.3	57.3	83	52.2	0	0	---	0.00	29.918 
06:45	57.5	57.5	57.5	83	52.4	0	0	---	0.00	29.920 
06:50	57.5	57.5	57.5	83	52.4	0	0	---	0.00	29.920 
06:55	57.6	57.6	57.6	83	52.5	0	0	---	0.00	29.920 
07:00	58.0	58.0	58.0	82	52.5	0	0	---	0.00	29.920 
07:05	58.3	58.3	58.3	82	52.8	0	0	---	0.00	29.920 
07:10	58.7	58.7	58.7	80	52.5	0	1	315	0.00	29.920 
07:15	58.9	58.9	58.9	80	52.7	0	0	---	0.00	29.920 
07:20	59.2	59.2	59.2	79	52.7	0	1	315	0.00	29.920 
07:25	59.6	59.6	59.6	78	52.7	0	1	315	0.00	29.920 
07:30	59.9	59.9	59.9	77	52.7	0	1	315	0.00	29.920 
07:35	60.2	60.2	60.2	77	53.0	0	1	315	0.00	29.920 
07:40	60.5	60.5	60.5	76	52.9	0	2	292	0.00	29.920 
07:45	61.0	61.0	61.0	75	53.0	0	1	292	0.00	29.919 
07:50	61.3	61.3	61.3	75	53.3	0	1	292	0.00	29.919 
07:55	61.6	61.6	61.6	74	53.2	1	3	292	0.00	29.919 
08:00	61.6	61.6	61.6	74	53.2	0	3	292	0.00	29.921 
08:05	61.5	61.5	61.5	74	53.1	0	1	292	0.00	29.921 
08:10	61.5	61.5	61.5	75	53.5	0	2	292	0.00	29.921 
08:15	61.3	61.3	61.3	74	52.9	0	2	292	0.00	29.931 
08:20	61.5	61.5	61.5	75	53.5	0	0	---	0.00	29.931 
08:25	62.3	62.3	62.3	76	54.6	0	2	292	0.00	29.931 
08:30	63.1	63.1	63.1	71	53.5	1	3	315	0.00	29.934 
08:35	63.5	63.5	63.5	72	54.3	1	2	270	0.00	29.934 
08:40	63.9	63.9	63.9	70	53.9	1	3	292	0.00	29.934 
08:45	64.2	64.2	64.2	69	53.8	1	2	292	0.00	29.932 
08:50	64.7	64.7	64.7	70	54.7	0	2	292	0.00	29.932 
08:55	65.0	65.0	65.0	67	53.8	1	2	338	0.00	29.932 
09:00	64.7	64.7	64.7	69	54.3	1	3	338	0.00	29.937 
09:05	64.2	64.2	64.2	69	53.8	1	3	292	0.00	29.937 
09:10	63.9	63.9	63.9	70	53.9	0	2	315	0.00	29.937 
09:15	63.7	63.7	63.7	72	54.5	0	4	292	0.00	29.950 
09:20	63.5	63.5	63.5	72	54.3	0	1	292	0.00	29.950 
09:25	63.5	63.5	63.5	70	53.5	0	2	292	0.00	29.950 
09:30	63.4	63.4	63.4	71	53.8	0	2	270	0.00	29.949 
09:35	63.4	63.4	63.4	70	53.4	0	2	292	0.00	29.949 
09:40	63.2	63.2	63.2	68	52.5	1	3	292	0.00	29.949 
09:45	63.2	63.2	63.2	69	52.9	0	2	292	0.00	29.953 
09:50	63.2	63.2	63.2	69	52.9	0	2	315	0.00	29.953 
09:55	63.2	63.2	63.2	71	53.6	0	1	315	0.00	29.953 
10:00	63.2	63.2	63.2	70	53.2	0	1	315	0.00	29.950 
10:05	63.1	63.1	63.1	70	53.2	0	1	315	0.00	29.950 
10:10	62.9	62.9	62.9	69	52.6	0	2	292	0.00	29.950 
10:15	62.7	62.7	62.7	69	52.4	0	2	292	0.00	29.942 
10:20	62.7	62.7	62.7	69	52.4	0	2	292	0.00	29.942 
10:25	62.9	62.9	62.9	71	53.3	0	2	292	0.00	29.942 
10:30	63.2	63.2	63.2	72	54.0	0	1	292	0.00	29.944 
10:35	63.4	63.4	63.4	71	53.8	0	1	292	0.00	29.944 
10:40	63.4	63.4	63.4	69	53.0	0	2	292	0.00	29.944 
10:45	63.7	63.7	63.7	69	53.3	0	3	22	0.00	29.949 
10:50	64.0	64.0	64.0	67	52.8	1	3	22	0.00	29.949 
10:55	64.7	64.7	64.7	65	52.7	0	3	270	0.00	29.949 
11:00	65.2	65.2	65.2	68	54.4	0	2	270	0.00	29.944 
11:05	65.6	65.6	65.6	68	54.7	0	2	270	0.00	29.944 
11:10	65.8	65.8	65.8	67	54.5	1	3	292	0.00	29.944 
11:15	66.0	66.0	66.0	65	53.9	1	3	292	0.00	29.949 
11:20	66.3	66.3	66.3	64	53.7	1	2	292	0.00	29.949 
11:25	66.4	66.4	66.4	64	53.8	0	3	292	0.00	29.949 
11:30	66.9	66.9	66.9	65	54.7	0	2	292	0.00	29.938 
11:35	67.4	67.4	67.4	65	55.2	0	2	292	0.00	29.938 
11:40	67.6	67.6	67.6	62	54.1	1	4	22	0.00	29.938 
11:45	68.1	68.1	68.1	62	54.6	2	5	248	0.00	29.939 
11:50	68.4	68.4	68.4	63	55.3	1	4	270	0.00	29.939 
11:55	69.3	69.3	69.3	63	56.2	2	4	248	0.00	29.939 
12:00	69.6	69.6	69.6	60	55.1	1	4	338	0.00	29.937 
12:05	69.9	69.9	69.9	57	54.0	2	4	315	0.00	29.937 
12:10	70.4	70.4	70.4	55	53.4	1	3	45	0.00	29.937 
12:15	70.9	70.9	70.9	55	53.9	1	4	338	0.00	29.935 
12:20	70.9	70.9	70.9	57	54.9	1	2	0	0.00	29.935 
12:25	71.1	71.1	71.1	52	52.6	2	5	270	0.00	29.935 
12:30	71.1	71.1	71.1	57	55.1	1	3	45	0.00	29.934 
12:35	71.6	71.6	71.6	56	55.1	1	3	45	0.00	29.934 
12:40	71.5	71.5	71.5	54	54.0	1	2	0	0.00	29.934 
12:45	71.3	71.3	71.3	49	51.1	3	5	270	0.00	29.933 
12:50	71.6	71.6	71.6	56	55.1	1	3	270	0.00	29.933 
12:55	72.5	72.5	72.5	55	55.4	1	5	338	0.00	29.933 
13:00	73.3	73.3	73.3	54	55.6	1	3	90	0.00	29.929 
13:05	73.9	73.9	73.9	52	55.1	2	9	292	0.00	29.929 
13:10	73.0	73.0	73.0	52	54.3	2	6	68	0.00	29.929 
13:15	73.2	73.2	73.2	51	54.0	1	4	45	0.00	29.926 
13:20	72.8	72.8	72.8	50	53.1	1	4	270	0.00	29.926 
13:25	72.8	72.8	72.8	50	53.1	1	3	315	0.00	29.926 
13:30	72.8	72.8	72.8	49	52.5	1	4	338	0.00	29.922 
13:35	73.2	73.2	73.2	51	54.0	1	3	22	0.00	29.922 
13:40	73.0	73.0	73.0	49	52.7	1	3	292	0.00	29.922 
13:45	72.3	72.3	72.3	51	53.1	1	3	22	0.00	29.919 
13:50	72.1	72.1	72.1	51	53.0	1	3	315	0.00	29.919 
13:55	73.0	73.0	73.0	49	52.7	1	3	292	0.00	29.919 
14:00	72.8	72.8	72.8	50	53.1	1	3	315	0.00	29.917 
14:05	73.0	73.0	73.0	50	53.2	1	4	315	0.00	29.917 
14:10	73.3	73.3	73.3	52	54.6	1	4	68	0.00	29.917 
14:15	73.7	73.7	73.7	50	53.9	1	4	292	0.00	29.918 
14:20	73.7	73.7	73.7	50	53.9	1	3	315	0.00	29.918 
14:25	73.9	73.9	73.9	52	55.1	1	4	22	0.00	29.918 
14:30	74.0	74.0	74.0	51	54.7	1	4	22	0.00	29.916 
14:35	74.0	74.0	74.0	50	54.2	2	4	270	0.00	29.916 
14:40	74.0	74.0	74.0	48	53.0	2	5	22	0.00	29.916 
14:45	74.0	74.0	74.0	46	51.9	2	6	292	0.00	29.910 
14:50	74.2	74.2	74.2	50	54.3	1	3	338	0.00	29.910 
14:55	74.2	74.2	74.2	49	53.8	1	3	90	0.00	29.910 
15:00	74.0	74.0	74.0	46	51.9	1	3	292	0.00	29.906 
15:05	74.4	74.4	74.4	48	53.4	1	5	292	0.00	29.906 
15:10	74.7	74.7	74.7	47	53.1	1	4	270	0.00	29.906 
15:15	74.6	74.6	74.6	45	51.8	2	6	45	0.00	29.903 
15:20	74.6	74.6	74.6	50	54.7	1	3	270	0.00	29.903 
15:25	75.3	75.3	77.7	49	54.8	1	3	270	0.00	29.903 
15:30	74.9	74.9	74.9	49	54.4	1	4	22	0.00	29.898 
15:35	74.9	74.9	74.9	50	55.0	1	3	68	0.00	29.898 
15:40	74.9	74.9	74.9	49	54.4	1	3	315	0.00	29.898 
15:45	75.8	75.8	78.0	48	54.7	1	3	270	0.00	29.899 
15:50	76.1	76.1	78.0	45	53.2	1	5	0	0.00	29.899 
15:55	75.1	75.1	77.7	46	52.9	1	3	0	0.00	29.899 
16:00	74.7	74.7	74.7	53	56.4	0	2	0	0.00	29.898 
16:05	74.2	74.2	74.2	48	53.2	1	4	45	0.00	29.898 
16:10	73.9	73.9	73.9	48	53.0	1	3	112	0.00	29.898 
16:15	73.9	73.9	73.9	51	54.6	2	5	90	0.00	29.900 
16:20	74.6	74.6	74.6	51	55.3	1	3	68	0.00	29.900 
16:25	75.1	75.1	77.6	53	56.8	1	4	292	0.00	29.900 
16:30	75.8	75.8	78.0	50	55.8	2	6	68	0.00	29.897 
16:35	76.0	76.0	78.0	48	54.9	2	5	68	0.00	29.897 
16:40	76.0	76.0	78.0	44	52.5	2	4	248	0.00	29.897 
16:45	76.3	76.3	78.2	49	55.7	1	5	22	0.00	29.888 
16:50	76.0	76.0	78.0	44	52.5	1	5	45	0.00	29.888 
16:55	75.8	75.8	77.9	47	54.1	1	3	45	0.00	29.888 
17:00	75.8	75.8	77.9	47	54.1	1	6	22	0.00	29.887 
17:05	75.6	75.6	77.8	45	52.7	1	4	292	0.00	29.887 
17:10	75.8	75.8	77.9	47	54.1	1	3	315	0.00	29.887 
17:15	76.1	76.1	78.0	46	53.8	1	5	45	0.00	29.877 
17:20	75.8	75.8	77.9	46	53.5	0	2	45	0.00	29.877 
17:25	75.8	75.8	78.0	48	54.7	2	7	90	0.00	29.877 
17:30	75.4	75.4	77.8	47	53.7	1	3	338	0.00	29.881 
17:35	75.4	75.4	77.7	44	52.0	1	3	90	0.00	29.881 
17:40	75.6	75.6	77.8	45	52.7	1	3	45	0.00	29.881 
17:45	75.3	75.3	77.7	45	52.5	1	3	68	0.00	29.885 
17:50	75.1	75.1	77.7	50	55.2	1	2	135	0.00	29.885 
17:55	74.7	74.7	74.7	45	51.9	1	5	90	0.00	29.885 
18:00	73.9	73.9	73.9	46	51.8	1	4	292	0.00	29.884 
18:05	73.9	73.9	73.9	48	53.0	1	2	292	0.00	29.884 
18:10	74.0	74.0	74.0	46	51.9	1	3	270	0.00	29.884 
18:15	74.0	74.0	74.0	48	53.0	1	2	270	0.00	29.878 
18:20	74.0	74.0	74.0	47	52.5	1	3	270	0.00	29.878 
18:25	74.2	74.2	74.2	45	51.5	1	3	292	0.00	29.878 
18:30	73.9	73.9	73.9	46	51.8	1	3	338	0.00	29.881 
18:35	73.7	73.7	73.7	47	52.2	0	3	338	0.00	29.881 
18:40	73.5	73.5	73.5	50	53.7	0	2	22	0.00	29.881 
18:45	73.5	73.5	73.5	46	51.4	0	2	22	0.00	29.877 
18:50	73.0	73.0	73.0	47	51.6	0	1	338	0.00	29.877 
18:55	72.5	72.5	72.5	49	52.2	0	1	338	0.00	29.877 
19:00	72.1	72.1	72.1	47	50.7	0	2	292	0.00	29.877 
19:05	72.0	72.0	72.0	47	50.7	0	2	292	0.00	29.877 
19:10	72.0	72.0	72.0	48	51.2	0	1	292	0.00	29.877 
19:15	72.0	72.0	72.0	49	51.8	0	1	292	0.00	29.877 
19:20	71.8	71.8	71.8	50	52.1	0	2	292	0.00	29.877 
19:25	71.8	71.8	71.8	48	51.0	0	1	292	0.00	29.877 
19:30	71.8	71.8	71.8	49	51.6	0	1	292	0.00	29.877 
19:35	71.8	71.8	71.8	50	52.1	0	1	292	0.00	29.877 
19:40	71.6	71.6	71.6	50	52.0	0	1	292	0.00	29.877 
19:45	71.5	71.5	71.5	49	51.3	0	2	270	0.00	29.874 
19:50	71.3	71.3	71.3	50	51.7	0	1	270	0.00	29.874 
19:55	71.1	71.1	71.1	49	51.0	0	1	270	0.00	29.874 
20:00	70.9	70.9	70.9	50	51.3	0	1	270	0.00	29.875 
20:05	70.8	70.8	70.8	51	51.8	0	1	180	0.00	29.875 
20:10	70.8	70.8	70.8	51	51.8	0	1	180	0.00	29.875 
20:15	70.6	70.6	70.6	50	51.0	0	1	180	0.00	29.870 
20:20	70.4	70.4	70.4	51	51.4	0	1	180	0.00	29.870 
20:25	70.3	70.3	70.3	50	50.8	0	0	---	0.00	29.870 
20:30	70.3	70.3	70.3	51	51.3	0	0	---	0.00	29.873 
20:35	69.9	69.9	69.9	51	50.9	0	0	---	0.00	29.873 
20:40	69.8	69.8	69.8	50	50.3	0	0	---	0.00	29.873 
20:45	69.6	69.6	69.6	51	50.7	0	0	---	0.00	29.874 
20:50	69.4	69.4	69.4	52	51.0	0	0	---	0.00	29.874 
20:55	69.1	69.1	69.1	51	50.2	0	0	---	0.00	29.874 
21:00	68.9	68.9	68.9	52	50.5	0	1	202	0.00	29.871 
21:05	68.8	68.8	68.8	53	51.0	0	0	---	0.00	29.871 
21:10	68.6	68.6	68.6	53	50.8	0	0	---	0.00	29.871 
21:15	68.4	68.4	68.4	53	50.6	0	0	---	0.00	29.879 
21:20	68.4	68.4	68.4	53	50.6	0	0	---	0.00	29.879 
21:25	68.4	68.4	68.4	57	52.6	1	2	22	0.00	29.879 
21:30	68.1	68.1	68.1	59	53.2	1	2	22	0.00	29.887 
21:35	67.9	67.9	67.9	60	53.5	0	3	292	0.00	29.887 
21:40	67.6	67.6	67.6	61	53.7	1	4	292	0.00	29.887 
21:45	67.4	67.4	67.4	63	54.4	0	3	270	0.00	29.892 
21:50	67.1	67.1	67.1	62	53.6	1	4	292	0.00	29.892 
21:55	66.8	66.8	66.8	63	53.8	1	3	292	0.00	29.892 
22:00	66.6	66.6	66.6	63	53.6	1	2	315	0.00	29.902 
22:05	66.4	66.4	66.4	63	53.4	1	2	338	0.00	29.902 
22:10	66.1	66.1	66.1	64	53.6	1	3	338	0.00	29.902 
22:15	66.0	66.0	66.0	64	53.5	0	1	270	0.00	29.901 
22:20	65.8	65.8	65.8	65	53.7	0	1	292	0.00	29.901 
22:25	65.6	65.6	65.6	65	53.5	0	2	292	0.00	29.901 
22:30	65.5	65.5	65.5	66	53.8	0	2	292	0.00	29.906 
22:35	65.2	65.2	65.2	66	53.5	0	1	292	0.00	29.906 
22:40	65.2	65.2	65.2	66	53.5	0	2	292	0.00	29.906 
22:45	65.0	65.0	65.0	66	53.4	0	1	292	0.00	29.897 
22:50	64.8	64.8	64.8	65	52.8	1	4	292	0.00	29.897 
22:55	64.7	64.7	64.7	66	53.1	0	1	292	0.00	29.897 
23:00	64.5	64.5	64.5	67	53.3	0	1	292	0.00	29.903 
23:05	64.3	64.3	64.3	67	53.1	0	1	292	0.00	29.903 
23:10	64.3	64.3	64.3	67	53.1	0	1	292	0.00	29.903 
23:15	64.2	64.2	64.2	67	53.0	0	2	292	0.00	29.903 
23:20	64.0	64.0	64.0	66	52.4	0	1	292	0.00	29.903 
23:25	63.9	63.9	63.9	65	51.9	0	2	292	0.00	29.903 
23:30	63.7	63.7	63.7	65	51.7	0	2	292	0.00	29.904 
23:35	63.7	63.7	63.7	65	51.7	0	1	292	0.00	29.904 
23:40	63.7	63.7	63.7	65	51.7	1	2	292	0.00	29.904 
23:45	63.5	63.5	63.5	65	51.5	0	1	292	0.00	29.904 
23:50	63.4	63.4	63.4	65	51.4	0	2	292	0.00	29.904 
23:55	63.2	63.2	63.2	66	51.6	0	1	292	0.00	29.904 

CoCoRaHS
IN-AL-39
A2 Web Hosting
Creative Commons License
GoDaddy
Look for:

loaded 2017-10-19 19:51:41 • last modified 2010-11-18 10:43:29
Privacy PolicyDisclaimer
• wx.awcolley.com is powered by PmWiki v.2002016 •
• all content (unless otherwise noted) © 2017 A W Colley